sensor_id;sensor_type;location;lat;lon;timestamp;pressure;altitude;pressure_sealevel;temperature;humidity
55932;BME280;41837;55.700;37.984;2022-11-20T00:00:56;100172.63;;;-3.69;100.00
55932;BME280;41837;55.700;37.984;2022-11-20T00:03:22;100159.78;;;-3.72;100.00
55932;BME280;41837;55.700;37.984;2022-11-20T00:05:49;100158.16;;;-3.70;100.00
55932;BME280;41837;55.700;37.984;2022-11-20T00:08:15;100163.94;;;-3.77;100.00
55932;BME280;41837;55.700;37.984;2022-11-20T00:10:41;100160.75;;;-3.67;100.00
55932;BME280;41837;55.700;37.984;2022-11-20T00:13:07;100165.63;;;-3.78;100.00
55932;BME280;41837;55.700;37.984;2022-11-20T00:15:33;100164.78;;;-3.78;100.00
55932;BME280;41837;55.700;37.984;2022-11-20T00:18:00;100173.09;;;-3.88;100.00
55932;BME280;41837;55.700;37.984;2022-11-20T00:20:26;100168.97;;;-3.80;100.00
55932;BME280;41837;55.700;37.984;2022-11-20T00:22:53;100168.19;;;-3.78;100.00
55932;BME280;41837;55.700;37.984;2022-11-20T00:25:19;100165.41;;;-3.88;100.00
55932;BME280;41837;55.700;37.984;2022-11-20T00:27:45;100163.50;;;-3.97;100.00
55932;BME280;41837;55.700;37.984;2022-11-20T00:30:12;100153.16;;;-4.03;100.00
55932;BME280;41837;55.700;37.984;2022-11-20T00:32:38;100164.50;;;-3.90;100.00
55932;BME280;41837;55.700;37.984;2022-11-20T00:35:04;100164.88;;;-3.75;100.00
55932;BME280;41837;55.700;37.984;2022-11-20T00:37:31;100166.50;;;-3.77;100.00
55932;BME280;41837;55.700;37.984;2022-11-20T00:39:57;100171.75;;;-3.71;100.00
55932;BME280;41837;55.700;37.984;2022-11-20T00:42:26;100174.19;;;-3.76;100.00
55932;BME280;41837;55.700;37.984;2022-11-20T00:44:52;100161.50;;;-3.72;100.00
55932;BME280;41837;55.700;37.984;2022-11-20T00:47:19;100163.06;;;-3.79;100.00
55932;BME280;41837;55.700;37.984;2022-11-20T00:49:45;100166.31;;;-3.86;100.00
55932;BME280;41837;55.700;37.984;2022-11-20T00:52:12;100161.31;;;-3.82;100.00
55932;BME280;41837;55.700;37.984;2022-11-20T00:54:38;100155.94;;;-3.92;100.00
55932;BME280;41837;55.700;37.984;2022-11-20T00:57:05;100157.38;;;-3.66;100.00
55932;BME280;41837;55.700;37.984;2022-11-20T00:59:31;100157.97;;;-3.78;100.00
55932;BME280;41837;55.700;37.984;2022-11-20T01:01:57;100162.34;;;-3.72;100.00
55932;BME280;41837;55.700;37.984;2022-11-20T01:04:23;100157.66;;;-3.93;100.00
55932;BME280;41837;55.700;37.984;2022-11-20T01:06:50;100167.75;;;-3.98;100.00
55932;BME280;41837;55.700;37.984;2022-11-20T01:09:16;100166.97;;;-3.95;100.00
55932;BME280;41837;55.700;37.984;2022-11-20T01:11:44;100156.97;;;-3.84;100.00
55932;BME280;41837;55.700;37.984;2022-11-20T01:14:13;100153.28;;;-3.99;100.00
55932;BME280;41837;55.700;37.984;2022-11-20T01:16:43;100160.97;;;-3.96;100.00
55932;BME280;41837;55.700;37.984;2022-11-20T01:19:12;100164.03;;;-4.12;100.00
55932;BME280;41837;55.700;37.984;2022-11-20T01:21:41;100155.84;;;-3.97;100.00
55932;BME280;41837;55.700;37.984;2022-11-20T01:24:11;100158.03;;;-4.13;100.00
55932;BME280;41837;55.700;37.984;2022-11-20T01:26:40;100161.72;;;-4.01;100.00
55932;BME280;41837;55.700;37.984;2022-11-20T01:29:19;100148.47;;;-4.21;100.00
55932;BME280;41837;55.700;37.984;2022-11-20T01:31:46;100154.69;;;-4.12;100.00
55932;BME280;41837;55.700;37.984;2022-11-20T01:34:15;100166.03;;;-3.99;100.00
55932;BME280;41837;55.700;37.984;2022-11-20T01:36:43;100161.69;;;-4.03;100.00
55932;BME280;41837;55.700;37.984;2022-11-20T01:39:13;100163.53;;;-3.96;100.00
55932;BME280;41837;55.700;37.984;2022-11-20T01:41:40;100157.13;;;-4.16;100.00
55932;BME280;41837;55.700;37.984;2022-11-20T01:44:49;100170.84;;;-4.11;100.00
55932;BME280;41837;55.700;37.984;2022-11-20T01:50:19;100169.22;;;-4.09;100.00
55932;BME280;41837;55.700;37.984;2022-11-20T01:52:52;100173.63;;;-4.02;100.00
55932;BME280;41837;55.700;37.984;2022-11-20T01:55:28;100172.63;;;-4.08;100.00
55932;BME280;41837;55.700;37.984;2022-11-20T01:57:56;100182.91;;;-4.05;100.00
55932;BME280;41837;55.700;37.984;2022-11-20T02:00:23;100184.50;;;-4.10;100.00
55932;BME280;41837;55.700;37.984;2022-11-20T02:02:59;100182.91;;;-4.05;100.00
55932;BME280;41837;55.700;37.984;2022-11-20T02:08:05;100194.75;;;-4.09;100.00
55932;BME280;41837;55.700;37.984;2022-11-20T02:10:32;100199.91;;;-4.06;100.00
55932;BME280;41837;55.700;37.984;2022-11-20T02:12:59;100188.63;;;-4.16;100.00
55932;BME280;41837;55.700;37.984;2022-11-20T02:15:45;100186.09;;;-4.16;100.00
55932;BME280;41837;55.700;37.984;2022-11-20T02:18:14;100191.69;;;-3.92;100.00
55932;BME280;41837;55.700;37.984;2022-11-20T02:20:44;100193.06;;;-4.08;100.00
55932;BME280;41837;55.700;37.984;2022-11-20T02:25:49;100203.31;;;-4.07;100.00
55932;BME280;41837;55.700;37.984;2022-11-20T02:28:17;100199.97;;;-4.03;100.00
55932;BME280;41837;55.700;37.984;2022-11-20T02:30:43;100210.06;;;-4.07;100.00
55932;BME280;41837;55.700;37.984;2022-11-20T02:33:09;100210.06;;;-4.09;100.00
55932;BME280;41837;55.700;37.984;2022-11-20T02:35:39;100213.44;;;-4.10;100.00
55932;BME280;41837;55.700;37.984;2022-11-20T02:38:06;100210.22;;;-4.01;100.00
55932;BME280;41837;55.700;37.984;2022-11-20T02:40:32;100214.22;;;-4.13;100.00
55932;BME280;41837;55.700;37.984;2022-11-20T02:42:58;100219.94;;;-4.23;100.00
55932;BME280;41837;55.700;37.984;2022-11-20T02:45:24;100214.25;;;-4.11;100.00
55932;BME280;41837;55.700;37.984;2022-11-20T02:47:51;100217.50;;;-4.18;100.00
55932;BME280;41837;55.700;37.984;2022-11-20T02:50:18;100218.44;;;-4.15;100.00
55932;BME280;41837;55.700;37.984;2022-11-20T02:52:45;100220.84;;;-4.19;100.00
55932;BME280;41837;55.700;37.984;2022-11-20T02:55:11;100221.25;;;-4.04;100.00
55932;BME280;41837;55.700;37.984;2022-11-20T02:57:38;100217.41;;;-3.86;100.00
55932;BME280;41837;55.700;37.984;2022-11-20T03:00:06;100214.75;;;-3.89;100.00
55932;BME280;41837;55.700;37.984;2022-11-20T03:02:32;100213.72;;;-3.98;100.00
55932;BME280;41837;55.700;37.984;2022-11-20T03:04:59;100210.69;;;-4.18;100.00
55932;BME280;41837;55.700;37.984;2022-11-20T03:07:25;100212.66;;;-4.06;100.00
55932;BME280;41837;55.700;37.984;2022-11-20T03:09:52;100218.50;;;-4.12;100.00
55932;BME280;41837;55.700;37.984;2022-11-20T03:12:18;100205.53;;;-4.19;100.00
55932;BME280;41837;55.700;37.984;2022-11-20T03:14:44;100214.53;;;-4.00;100.00
55932;BME280;41837;55.700;37.984;2022-11-20T03:17:10;100219.13;;;-4.22;100.00
55932;BME280;41837;55.700;37.984;2022-11-20T03:19:36;100227.88;;;-4.12;100.00
55932;BME280;41837;55.700;37.984;2022-11-20T03:22:02;100221.78;;;-4.17;100.00
55932;BME280;41837;55.700;37.984;2022-11-20T03:24:28;100228.00;;;-4.06;100.00
55932;BME280;41837;55.700;37.984;2022-11-20T03:26:54;100234.22;;;-4.31;100.00
55932;BME280;41837;55.700;37.984;2022-11-20T03:29:21;100233.41;;;-4.28;100.00
55932;BME280;41837;55.700;37.984;2022-11-20T03:31:47;100237.91;;;-4.18;100.00
55932;BME280;41837;55.700;37.984;2022-11-20T03:34:13;100225.13;;;-4.20;100.00
55932;BME280;41837;55.700;37.984;2022-11-20T03:36:41;100224.38;;;-4.16;100.00
55932;BME280;41837;55.700;37.984;2022-11-20T03:39:08;100228.56;;;-4.18;100.00
55932;BME280;41837;55.700;37.984;2022-11-20T03:41:39;100234.34;;;-4.25;100.00
55932;BME280;41837;55.700;37.984;2022-11-20T03:44:08;100226.69;;;-4.25;100.00
55932;BME280;41837;55.700;37.984;2022-11-20T03:46:35;100239.06;;;-4.07;100.00
55932;BME280;41837;55.700;37.984;2022-11-20T03:49:03;100244.91;;;-4.11;100.00
55932;BME280;41837;55.700;37.984;2022-11-20T03:51:34;100234.59;;;-4.14;100.00
55932;BME280;41837;55.700;37.984;2022-11-20T03:54:06;100231.31;;;-4.10;100.00
55932;BME280;41837;55.700;37.984;2022-11-20T03:56:36;100238.00;;;-4.15;100.00
55932;BME280;41837;55.700;37.984;2022-11-20T03:59:03;100243.75;;;-4.24;100.00
55932;BME280;41837;55.700;37.984;2022-11-20T04:01:35;100245.75;;;-4.12;100.00
55932;BME280;41837;55.700;37.984;2022-11-20T04:04:03;100241.94;;;-3.93;100.00
55932;BME280;41837;55.700;37.984;2022-11-20T04:06:34;100246.78;;;-4.04;100.00
55932;BME280;41837;55.700;37.984;2022-11-20T04:09:01;100248.09;;;-4.20;100.00
55932;BME280;41837;55.700;37.984;2022-11-20T04:11:31;100246.13;;;-4.30;100.00
55932;BME280;41837;55.700;37.984;2022-11-20T04:14:00;100251.75;;;-4.10;100.00
55932;BME280;41837;55.700;37.984;2022-11-20T04:16:31;100249.31;;;-4.05;100.00
55932;BME280;41837;55.700;37.984;2022-11-20T04:19:02;100244.69;;;-4.20;100.00
55932;BME280;41837;55.700;37.984;2022-11-20T04:21:29;100252.94;;;-4.31;100.00
55932;BME280;41837;55.700;37.984;2022-11-20T04:23:55;100256.59;;;-4.19;100.00
55932;BME280;41837;55.700;37.984;2022-11-20T04:26:24;100265.09;;;-4.20;100.00
55932;BME280;41837;55.700;37.984;2022-11-20T04:28:51;100266.00;;;-4.18;100.00
55932;BME280;41837;55.700;37.984;2022-11-20T04:31:20;100260.13;;;-4.14;100.00
55932;BME280;41837;55.700;37.984;2022-11-20T04:33:46;100269.28;;;-4.24;100.00
55932;BME280;41837;55.700;37.984;2022-11-20T04:36:13;100269.38;;;-4.19;100.00
55932;BME280;41837;55.700;37.984;2022-11-20T04:38:40;100272.91;;;-4.14;100.00
55932;BME280;41837;55.700;37.984;2022-11-20T04:41:08;100278.94;;;-4.12;100.00
55932;BME280;41837;55.700;37.984;2022-11-20T04:43:35;100278.28;;;-4.03;100.00
55932;BME280;41837;55.700;37.984;2022-11-20T04:46:02;100286.75;;;-4.04;100.00
55932;BME280;41837;55.700;37.984;2022-11-20T04:48:29;100288.13;;;-4.19;100.00
55932;BME280;41837;55.700;37.984;2022-11-20T04:50:55;100302.97;;;-4.04;100.00
55932;BME280;41837;55.700;37.984;2022-11-20T04:53:22;100296.88;;;-4.09;100.00
55932;BME280;41837;55.700;37.984;2022-11-20T04:55:49;100298.50;;;-4.11;100.00
55932;BME280;41837;55.700;37.984;2022-11-20T04:58:16;100301.47;;;-4.29;100.00
55932;BME280;41837;55.700;37.984;2022-11-20T05:00:42;100304.44;;;-3.77;100.00
55932;BME280;41837;55.700;37.984;2022-11-20T05:03:08;100298.28;;;-3.85;100.00
55932;BME280;41837;55.700;37.984;2022-11-20T05:05:34;100308.59;;;-3.82;100.00
55932;BME280;41837;55.700;37.984;2022-11-20T05:08:00;100302.81;;;-4.10;100.00
55932;BME280;41837;55.700;37.984;2022-11-20T05:10:27;100301.94;;;-4.10;100.00
55932;BME280;41837;55.700;37.984;2022-11-20T05:12:53;100309.50;;;-4.15;100.00
55932;BME280;41837;55.700;37.984;2022-11-20T05:15:20;100315.66;;;-4.07;100.00
55932;BME280;41837;55.700;37.984;2022-11-20T05:17:48;100324.50;;;-4.27;100.00
55932;BME280;41837;55.700;37.984;2022-11-20T05:20:15;100324.84;;;-4.14;100.00
55932;BME280;41837;55.700;37.984;2022-11-20T05:22:41;100324.03;;;-4.11;100.00
55932;BME280;41837;55.700;37.984;2022-11-20T05:25:07;100324.22;;;-4.05;100.00
55932;BME280;41837;55.700;37.984;2022-11-20T05:27:34;100326.09;;;-3.98;100.00
55932;BME280;41837;55.700;37.984;2022-11-20T05:30:01;100329.69;;;-4.23;100.00
55932;BME280;41837;55.700;37.984;2022-11-20T05:32:29;100341.91;;;-4.11;100.00
55932;BME280;41837;55.700;37.984;2022-11-20T05:34:56;100341.28;;;-4.04;100.00
55932;BME280;41837;55.700;37.984;2022-11-20T05:37:22;100345.38;;;-4.10;100.00
55932;BME280;41837;55.700;37.984;2022-11-20T05:39:49;100343.41;;;-4.21;100.00
55932;BME280;41837;55.700;37.984;2022-11-20T05:42:15;100350.34;;;-4.15;100.00
55932;BME280;41837;55.700;37.984;2022-11-20T05:45:02;100343.13;;;-3.98;100.00
55932;BME280;41837;55.700;37.984;2022-11-20T05:47:34;100340.22;;;-4.12;100.00
55932;BME280;41837;55.700;37.984;2022-11-20T05:50:01;100336.97;;;-3.71;100.00
55932;BME280;41837;55.700;37.984;2022-11-20T05:52:30;100348.03;;;-3.36;100.00
55932;BME280;41837;55.700;37.984;2022-11-20T05:54:57;100350.38;;;-3.44;100.00
55932;BME280;41837;55.700;37.984;2022-11-20T05:57:23;100364.84;;;-3.46;100.00
55932;BME280;41837;55.700;37.984;2022-11-20T05:59:49;100363.34;;;-3.72;100.00
55932;BME280;41837;55.700;37.984;2022-11-20T06:02:15;100371.13;;;-4.01;100.00
55932;BME280;41837;55.700;37.984;2022-11-20T06:04:42;100376.94;;;-4.07;100.00
55932;BME280;41837;55.700;37.984;2022-11-20T06:07:08;100375.91;;;-4.14;100.00
55932;BME280;41837;55.700;37.984;2022-11-20T06:09:35;100383.09;;;-3.65;100.00
55932;BME280;41837;55.700;37.984;2022-11-20T06:12:01;100370.41;;;-3.62;100.00
55932;BME280;41837;55.700;37.984;2022-11-20T06:14:28;100363.88;;;-3.51;100.00
55932;BME280;41837;55.700;37.984;2022-11-20T06:16:54;100388.13;;;-3.33;100.00
55932;BME280;41837;55.700;37.984;2022-11-20T06:19:21;100382.06;;;-3.37;100.00
55932;BME280;41837;55.700;37.984;2022-11-20T06:21:48;100384.16;;;-3.21;100.00
55932;BME280;41837;55.700;37.984;2022-11-20T06:24:16;100395.78;;;-2.97;100.00
55932;BME280;41837;55.700;37.984;2022-11-20T06:26:42;100391.78;;;-2.84;100.00
55932;BME280;41837;55.700;37.984;2022-11-20T06:29:09;100396.16;;;-2.78;100.00
55932;BME280;41837;55.700;37.984;2022-11-20T06:31:35;100412.69;;;-3.04;100.00
55932;BME280;41837;55.700;37.984;2022-11-20T06:34:05;100416.13;;;-3.38;100.00
55932;BME280;41837;55.700;37.984;2022-11-20T06:36:32;100416.38;;;-3.29;100.00
55932;BME280;41837;55.700;37.984;2022-11-20T06:38:59;100426.09;;;-3.12;100.00
55932;BME280;41837;55.700;37.984;2022-11-20T06:41:26;100424.16;;;-3.23;100.00
55932;BME280;41837;55.700;37.984;2022-11-20T06:43:54;100412.88;;;-2.94;100.00
55932;BME280;41837;55.700;37.984;2022-11-20T06:46:20;100421.72;;;-2.82;100.00
55932;BME280;41837;55.700;37.984;2022-11-20T06:48:48;100418.25;;;-2.82;100.00
55932;BME280;41837;55.700;37.984;2022-11-20T06:51:15;100417.38;;;-2.84;100.00
55932;BME280;41837;55.700;37.984;2022-11-20T06:53:43;100417.72;;;-3.43;100.00
55932;BME280;41837;55.700;37.984;2022-11-20T06:56:09;100418.78;;;-2.98;100.00
55932;BME280;41837;55.700;37.984;2022-11-20T06:58:36;100424.44;;;-3.12;100.00
55932;BME280;41837;55.700;37.984;2022-11-20T07:01:08;100412.69;;;-3.04;100.00
55932;BME280;41837;55.700;37.984;2022-11-20T07:03:34;100419.16;;;-3.18;100.00
55932;BME280;41837;55.700;37.984;2022-11-20T07:06:01;100404.13;;;-3.04;100.00
55932;BME280;41837;55.700;37.984;2022-11-20T07:08:28;100418.44;;;-3.14;100.00
55932;BME280;41837;55.700;37.984;2022-11-20T07:11:01;100400.81;;;-3.73;100.00
55932;BME280;41837;55.700;37.984;2022-11-20T07:13:29;100415.44;;;-3.66;100.00
55932;BME280;41837;55.700;37.984;2022-11-20T07:15:59;100402.16;;;-3.52;100.00
55932;BME280;41837;55.700;37.984;2022-11-20T07:18:26;100402.06;;;-3.56;100.00
55932;BME280;41837;55.700;37.984;2022-11-20T07:20:52;100409.19;;;-3.77;100.00
55932;BME280;41837;55.700;37.984;2022-11-20T07:23:19;100424.78;;;-3.68;100.00
55932;BME280;41837;55.700;37.984;2022-11-20T07:25:45;100420.19;;;-3.48;100.00
55932;BME280;41837;55.700;37.984;2022-11-20T07:28:12;100421.84;;;-3.48;100.00
55932;BME280;41837;55.700;37.984;2022-11-20T07:30:39;100435.78;;;-3.70;100.00
55932;BME280;41837;55.700;37.984;2022-11-20T07:33:06;100434.41;;;-3.58;100.00
55932;BME280;41837;55.700;37.984;2022-11-20T07:35:32;100439.13;;;-3.38;100.00
55932;BME280;41837;55.700;37.984;2022-11-20T07:37:59;100427.38;;;-3.31;100.00
55932;BME280;41837;55.700;37.984;2022-11-20T07:40:25;100426.97;;;-3.48;100.00
55932;BME280;41837;55.700;37.984;2022-11-20T07:42:54;100418.72;;;-3.37;100.00
55932;BME280;41837;55.700;37.984;2022-11-20T07:45:22;100417.38;;;-3.22;100.00
55932;BME280;41837;55.700;37.984;2022-11-20T07:47:49;100430.25;;;-3.17;100.00
55932;BME280;41837;55.700;37.984;2022-11-20T07:50:16;100433.13;;;-3.05;100.00
55932;BME280;41837;55.700;37.984;2022-11-20T07:52:43;100434.78;;;-3.06;100.00
55932;BME280;41837;55.700;37.984;2022-11-20T07:55:09;100428.41;;;-2.87;100.00
55932;BME280;41837;55.700;37.984;2022-11-20T07:57:38;100443.88;;;-3.19;100.00
55932;BME280;41837;55.700;37.984;2022-11-20T08:00:05;100446.06;;;-2.97;100.00
55932;BME280;41837;55.700;37.984;2022-11-20T08:02:41;100432.47;;;-2.96;100.00
55932;BME280;41837;55.700;37.984;2022-11-20T08:05:08;100436.22;;;-3.19;100.00
55932;BME280;41837;55.700;37.984;2022-11-20T08:07:39;100442.25;;;-3.15;100.00
55932;BME280;41837;55.700;37.984;2022-11-20T08:10:08;100436.69;;;-3.33;100.00
55932;BME280;41837;55.700;37.984;2022-11-20T08:12:34;100440.16;;;-3.31;100.00
55932;BME280;41837;55.700;37.984;2022-11-20T08:15:20;100453.91;;;-3.26;100.00
55932;BME280;41837;55.700;37.984;2022-11-20T08:17:46;100461.53;;;-3.28;100.00
55932;BME280;41837;55.700;37.984;2022-11-20T08:20:13;100460.72;;;-2.92;100.00
55932;BME280;41837;55.700;37.984;2022-11-20T08:22:38;100446.50;;;-3.15;100.00
55932;BME280;41837;55.700;37.984;2022-11-20T08:25:05;100454.63;;;-2.95;100.00
55932;BME280;41837;55.700;37.984;2022-11-20T08:27:32;100450.16;;;-3.04;100.00
55932;BME280;41837;55.700;37.984;2022-11-20T08:29:59;100453.41;;;-2.75;100.00
55932;BME280;41837;55.700;37.984;2022-11-20T08:32:28;100454.34;;;-2.71;100.00
55932;BME280;41837;55.700;37.984;2022-11-20T08:34:55;100463.94;;;-2.99;100.00
55932;BME280;41837;55.700;37.984;2022-11-20T08:37:21;100458.06;;;-2.95;100.00
55932;BME280;41837;55.700;37.984;2022-11-20T08:39:48;100454.34;;;-2.71;100.00
55932;BME280;41837;55.700;37.984;2022-11-20T08:42:14;100454.53;;;-2.62;100.00
55932;BME280;41837;55.700;37.984;2022-11-20T08:44:40;100446.63;;;-2.73;100.00
55932;BME280;41837;55.700;37.984;2022-11-20T08:47:08;100458.97;;;-2.53;100.00
55932;BME280;41837;55.700;37.984;2022-11-20T08:49:35;100454.28;;;-2.74;100.00
55932;BME280;41837;55.700;37.984;2022-11-20T08:52:01;100452.97;;;-2.55;100.00
55932;BME280;41837;55.700;37.984;2022-11-20T08:54:28;100458.25;;;-2.49;100.00
55932;BME280;41837;55.700;37.984;2022-11-20T08:56:54;100466.28;;;-3.08;100.00
55932;BME280;41837;55.700;37.984;2022-11-20T08:59:21;100463.41;;;-3.22;100.00
55932;BME280;41837;55.700;37.984;2022-11-20T09:01:47;100486.63;;;-3.13;100.00
55932;BME280;41837;55.700;37.984;2022-11-20T09:04:14;100483.03;;;-2.85;100.00
55932;BME280;41837;55.700;37.984;2022-11-20T09:06:41;100508.13;;;-2.70;100.00
55932;BME280;41837;55.700;37.984;2022-11-20T09:09:08;100517.81;;;-2.55;100.00
55932;BME280;41837;55.700;37.984;2022-11-20T09:11:34;100509.94;;;-2.64;100.00
55932;BME280;41837;55.700;37.984;2022-11-20T09:14:02;100511.00;;;-2.56;100.00
55932;BME280;41837;55.700;37.984;2022-11-20T09:16:28;100518.69;;;-2.56;99.96
55932;BME280;41837;55.700;37.984;2022-11-20T09:18:54;100513.25;;;-2.68;100.00
55932;BME280;41837;55.700;37.984;2022-11-20T09:21:20;100512.03;;;-2.84;100.00
55932;BME280;41837;55.700;37.984;2022-11-20T09:23:49;100519.84;;;-2.79;100.00
55932;BME280;41837;55.700;37.984;2022-11-20T09:26:15;100532.16;;;-2.63;100.00
55932;BME280;41837;55.700;37.984;2022-11-20T09:28:41;100518.94;;;-2.82;100.00
55932;BME280;41837;55.700;37.984;2022-11-20T09:31:09;100526.06;;;-2.68;100.00
55932;BME280;41837;55.700;37.984;2022-11-20T09:33:36;100530.72;;;-2.88;100.00
55932;BME280;41837;55.700;37.984;2022-11-20T09:36:02;100537.34;;;-2.60;100.00
55932;BME280;41837;55.700;37.984;2022-11-20T09:38:29;100536.38;;;-2.65;100.00
55932;BME280;41837;55.700;37.984;2022-11-20T09:41:05;100547.16;;;-2.42;100.00
55932;BME280;41837;55.700;37.984;2022-11-20T09:43:53;100543.03;;;-2.72;100.00
55932;BME280;41837;55.700;37.984;2022-11-20T09:46:40;100553.22;;;-2.75;100.00
55932;BME280;41837;55.700;37.984;2022-11-20T09:52:01;100558.31;;;-2.76;100.00
55932;BME280;41837;55.700;37.984;2022-11-20T09:54:36;100556.03;;;-2.64;100.00
55932;BME280;41837;55.700;37.984;2022-11-20T09:57:18;100554.72;;;-2.47;100.00
55932;BME280;41837;55.700;37.984;2022-11-20T10:00:00;100558.50;;;-2.67;100.00
55932;BME280;41837;55.700;37.984;2022-11-20T10:02:45;100546.00;;;-2.55;100.00
55932;BME280;41837;55.700;37.984;2022-11-20T10:05:28;100552.41;;;-2.36;100.00
55932;BME280;41837;55.700;37.984;2022-11-20T10:08:19;100558.13;;;-2.46;100.00
55932;BME280;41837;55.700;37.984;2022-11-20T10:15:58;100555.94;;;-2.29;100.00
55932;BME280;41837;55.700;37.984;2022-11-20T10:21:08;100558.69;;;-2.21;99.65
55932;BME280;41837;55.700;37.984;2022-11-20T10:26:24;100570.19;;;-2.42;100.00
55932;BME280;41837;55.700;37.984;2022-11-20T10:29:10;100574.09;;;-2.20;100.00
55932;BME280;41837;55.700;37.984;2022-11-20T10:34:25;100583.22;;;-2.31;100.00
55932;BME280;41837;55.700;37.984;2022-11-20T10:36:55;100579.63;;;-2.39;100.00
55932;BME280;41837;55.700;37.984;2022-11-20T10:39:50;100568.16;;;-2.19;100.00
55932;BME280;41837;55.700;37.984;2022-11-20T10:42:45;100575.47;;;-2.36;100.00
55932;BME280;41837;55.700;37.984;2022-11-20T10:48:20;100578.91;;;-2.34;100.00
55932;BME280;41837;55.700;37.984;2022-11-20T10:57:02;100596.16;;;-2.98;100.00
55932;BME280;41837;55.700;37.984;2022-11-20T11:02:32;100596.19;;;-2.96;100.00
55932;BME280;41837;55.700;37.984;2022-11-20T11:05:14;100597.78;;;-2.65;100.00
55932;BME280;41837;55.700;37.984;2022-11-20T11:07:45;100591.78;;;-2.67;100.00
55932;BME280;41837;55.700;37.984;2022-11-20T11:10:18;100595.63;;;-2.48;100.00
55932;BME280;41837;55.700;37.984;2022-11-20T11:12:47;100606.81;;;-2.45;100.00
55932;BME280;41837;55.700;37.984;2022-11-20T11:15:35;100603.63;;;-2.34;100.00
55932;BME280;41837;55.700;37.984;2022-11-20T11:18:03;100600.34;;;-2.30;100.00
55932;BME280;41837;55.700;37.984;2022-11-20T11:20:29;100601.13;;;-2.33;100.00
55932;BME280;41837;55.700;37.984;2022-11-20T11:22:57;100599.78;;;-2.53;100.00
55932;BME280;41837;55.700;37.984;2022-11-20T11:25:31;100601.69;;;-2.45;100.00
55932;BME280;41837;55.700;37.984;2022-11-20T11:28:03;100606.81;;;-2.45;100.00
55932;BME280;41837;55.700;37.984;2022-11-20T11:30:42;100607.25;;;-2.63;100.00
55932;BME280;41837;55.700;37.984;2022-11-20T11:33:20;100605.63;;;-2.59;100.00
55932;BME280;41837;55.700;37.984;2022-11-20T11:35:49;100595.31;;;-2.62;100.00
55932;BME280;41837;55.700;37.984;2022-11-20T11:38:19;100593.31;;;-2.74;100.00
55932;BME280;41837;55.700;37.984;2022-11-20T11:40:47;100591.94;;;-2.61;100.00
55932;BME280;41837;55.700;37.984;2022-11-20T11:43:20;100595.47;;;-2.91;100.00
55932;BME280;41837;55.700;37.984;2022-11-20T11:46:34;100600.44;;;-2.97;100.00
55932;BME280;41837;55.700;37.984;2022-11-20T11:51:36;100603.91;;;-2.95;100.00
55932;BME280;41837;55.700;37.984;2022-11-20T11:54:15;100597.75;;;-3.02;100.00
55932;BME280;41837;55.700;37.984;2022-11-20T11:56:44;100606.97;;;-3.08;100.00
55932;BME280;41837;55.700;37.984;2022-11-20T11:59:22;100610.78;;;-2.92;100.00
55932;BME280;41837;55.700;37.984;2022-11-20T12:01:56;100617.91;;;-2.81;100.00
55932;BME280;41837;55.700;37.984;2022-11-20T12:04:48;100622.75;;;-2.91;100.00
55932;BME280;41837;55.700;37.984;2022-11-20T12:07:29;100627.56;;;-3.02;100.00
55932;BME280;41837;55.700;37.984;2022-11-20T12:10:01;100625.91;;;-3.33;100.00
55932;BME280;41837;55.700;37.984;2022-11-20T12:12:37;100623.97;;;-3.42;100.00
55932;BME280;41837;55.700;37.984;2022-11-20T12:15:10;100628.31;;;-3.38;100.00
55932;BME280;41837;55.700;37.984;2022-11-20T12:17:37;100618.81;;;-3.44;100.00
55932;BME280;41837;55.700;37.984;2022-11-20T12:20:11;100625.97;;;-3.30;100.00
55932;BME280;41837;55.700;37.984;2022-11-20T12:22:55;100631.19;;;-3.27;100.00
55932;BME280;41837;55.700;37.984;2022-11-20T12:25:27;100630.06;;;-3.37;100.00
55932;BME280;41837;55.700;37.984;2022-11-20T12:31:25;100618.97;;;-3.38;100.00
55932;BME280;41837;55.700;37.984;2022-11-20T12:39:42;100614.22;;;-3.56;100.00
55932;BME280;41837;55.700;37.984;2022-11-20T12:42:55;100617.16;;;-3.42;100.00
55932;BME280;41837;55.700;37.984;2022-11-20T12:51:47;100631.91;;;-3.00;100.00
55932;BME280;41837;55.700;37.984;2022-11-20T12:54:46;100628.00;;;-2.85;100.00
55932;BME280;41837;55.700;37.984;2022-11-20T13:00:21;100629.44;;;-3.28;100.00
55932;BME280;41837;55.700;37.984;2022-11-20T13:05:59;100637.44;;;-3.16;100.00
55932;BME280;41837;55.700;37.984;2022-11-20T13:08:31;100649.00;;;-3.30;100.00
55932;BME280;41837;55.700;37.984;2022-11-20T13:16:50;100656.56;;;-3.03;100.00
55932;BME280;41837;55.700;37.984;2022-11-20T13:19:20;100659.28;;;-3.29;100.00
55932;BME280;41837;55.700;37.984;2022-11-20T13:21:48;100653.88;;;-3.08;100.00
55932;BME280;41837;55.700;37.984;2022-11-20T13:24:20;100650.09;;;-3.22;100.00
55932;BME280;41837;55.700;37.984;2022-11-20T13:29:42;100657.91;;;-3.16;100.00
55932;BME280;41837;55.700;37.984;2022-11-20T13:32:17;100657.13;;;-3.13;100.00
55932;BME280;41837;55.700;37.984;2022-11-20T13:34:58;100661.50;;;-3.09;100.00
55932;BME280;41837;55.700;37.984;2022-11-20T13:37:31;100669.78;;;-3.18;100.00
55932;BME280;41837;55.700;37.984;2022-11-20T13:42:53;100664.56;;;-3.51;100.00
55932;BME280;41837;55.700;37.984;2022-11-20T13:45:27;100676.28;;;-3.29;100.00
55932;BME280;41837;55.700;37.984;2022-11-20T13:47:55;100680.06;;;-3.16;100.00
55932;BME280;41837;55.700;37.984;2022-11-20T13:50:39;100655.44;;;-3.43;100.00
55932;BME280;41837;55.700;37.984;2022-11-20T13:53:31;100665.94;;;-3.34;100.00
55932;BME280;41837;55.700;37.984;2022-11-20T13:58:40;100672.97;;;-3.27;100.00